createdAt,value
2022-08-26T00:02:19.426Z,51.90
2022-08-26T00:04:46.512Z,51.88
2022-08-26T00:07:12.107Z,51.82
2022-08-26T00:09:40.062Z,51.81
2022-08-26T00:12:06.271Z,51.83
2022-08-26T00:14:31.808Z,51.78
2022-08-26T00:16:57.501Z,51.78
2022-08-26T00:19:23.241Z,51.84
2022-08-26T00:21:49.545Z,51.86
2022-08-26T00:24:15.972Z,51.90
2022-08-26T00:26:41.661Z,51.77
2022-08-26T00:29:08.486Z,51.78
2022-08-26T00:31:35.070Z,51.77
2022-08-26T00:34:01.599Z,51.88
2022-08-26T00:36:29.956Z,51.86
2022-08-26T00:38:55.589Z,51.88
2022-08-26T00:41:21.363Z,51.86
2022-08-26T00:43:47.953Z,51.82
2022-08-26T00:46:15.505Z,51.87
2022-08-26T00:48:42.978Z,51.91
2022-08-26T00:51:11.212Z,51.86
2022-08-26T00:53:38.998Z,51.86
2022-08-26T00:56:10.115Z,51.83
2022-08-26T00:58:42.106Z,51.80
2022-08-26T01:01:08.711Z,51.90
2022-08-26T01:03:34.560Z,51.91
2022-08-26T01:06:00.128Z,51.90
2022-08-26T01:08:25.679Z,51.87
2022-08-26T01:10:55.779Z,51.85
2022-08-26T01:13:22.153Z,51.82
2022-08-26T01:15:51.210Z,51.91
2022-08-26T01:18:16.747Z,51.86
2022-08-26T01:20:48.174Z,51.93
2022-08-26T01:23:14.253Z,51.94
2022-08-26T01:25:41.258Z,51.84
2022-08-26T01:28:10.059Z,51.90
2022-08-26T01:30:35.975Z,51.90
2022-08-26T01:33:02.787Z,51.93
2022-08-26T01:35:29.385Z,51.94
2022-08-26T01:37:55.414Z,51.91
2022-08-26T01:40:23.486Z,51.88
2022-08-26T01:42:49.070Z,51.88
2022-08-26T01:45:17.803Z,51.98
2022-08-26T01:47:43.387Z,51.98
2022-08-26T01:50:10.467Z,51.89
2022-08-26T01:52:37.340Z,51.95
2022-08-26T01:55:03.555Z,51.93
2022-08-26T01:57:29.590Z,51.96
2022-08-26T01:59:55.537Z,51.94
2022-08-26T02:02:21.079Z,51.95
2022-08-26T02:04:48.391Z,51.94
2022-08-26T02:07:15.771Z,51.89
2022-08-26T02:09:43.878Z,51.91
2022-08-26T02:12:10.315Z,51.95
2022-08-26T02:14:37.068Z,51.98
2022-08-26T02:17:09.543Z,51.95
2022-08-26T02:19:36.688Z,51.97
2022-08-26T02:22:04.646Z,51.87
2022-08-26T02:24:46.239Z,51.95
2022-08-26T02:27:12.503Z,51.90
2022-08-26T02:29:39.228Z,51.96
2022-08-26T02:32:06.232Z,51.92
2022-08-26T02:34:32.080Z,51.93
2022-08-26T02:36:58.662Z,51.95
2022-08-26T02:39:24.203Z,51.98
2022-08-26T02:41:49.743Z,52.01
2022-08-26T02:44:15.283Z,51.89
2022-08-26T02:46:40.856Z,51.98
2022-08-26T02:49:07.291Z,52.04
2022-08-26T02:51:32.844Z,51.97
2022-08-26T02:53:58.866Z,51.94
2022-08-26T02:56:24.679Z,51.94
2022-08-26T02:58:50.214Z,51.98
2022-08-26T03:01:20.229Z,52.01
2022-08-26T03:03:47.367Z,51.96
2022-08-26T03:06:15.126Z,51.95
2022-08-26T03:08:41.137Z,52.03
2022-08-26T03:11:07.742Z,51.97
2022-08-26T03:13:33.281Z,52.06
2022-08-26T03:16:00.907Z,52.06
2022-08-26T03:18:26.615Z,52.01
2022-08-26T03:20:52.170Z,52.02
2022-08-26T03:23:18.534Z,51.98
2022-08-26T03:25:47.763Z,51.97
2022-08-26T03:28:13.622Z,52.05
2022-08-26T03:30:39.180Z,52.05
2022-08-26T03:33:11.227Z,51.99
2022-08-26T03:35:37.245Z,51.99
2022-08-26T03:38:07.290Z,52.03
2022-08-26T03:40:33.817Z,52.05
2022-08-26T03:42:59.954Z,52.03
2022-08-26T03:45:25.493Z,52.05
2022-08-26T03:47:51.060Z,51.97
2022-08-26T03:50:22.977Z,51.98
2022-08-26T03:52:50.725Z,52.08
2022-08-26T03:55:16.510Z,52.02
2022-08-26T03:57:43.333Z,52.00
2022-08-26T04:00:13.125Z,52.00
2022-08-26T04:02:38.718Z,52.08
2022-08-26T04:05:04.383Z,52.00
2022-08-26T04:07:30.047Z,52.02
2022-08-26T04:09:57.731Z,52.03
2022-08-26T04:12:24.591Z,52.03
2022-08-26T04:14:50.770Z,52.07
2022-08-26T04:17:19.338Z,52.00
2022-08-26T04:19:51.661Z,52.09
2022-08-26T04:22:24.182Z,52.05
2022-08-26T04:24:50.658Z,52.08
2022-08-26T04:27:16.203Z,52.00
2022-08-26T04:29:42.839Z,52.03
2022-08-26T04:32:08.391Z,52.06
2022-08-26T04:34:34.905Z,51.98
2022-08-26T04:37:00.642Z,52.10
2022-08-26T04:39:27.719Z,52.06
2022-08-26T04:41:54.704Z,52.04
2022-08-26T04:44:20.404Z,52.03
2022-08-26T04:46:47.175Z,51.99
2022-08-26T04:49:12.839Z,52.00
2022-08-26T04:51:38.749Z,51.98
2022-08-26T04:54:06.079Z,52.04
2022-08-26T04:56:34.076Z,52.03
2022-08-26T04:58:59.930Z,52.07
2022-08-26T05:01:25.617Z,52.02
2022-08-26T05:03:51.685Z,52.02
2022-08-26T05:06:19.065Z,52.08
2022-08-26T05:08:44.673Z,51.97
2022-08-26T05:11:10.818Z,52.04
2022-08-26T05:13:37.552Z,52.05
2022-08-26T05:16:04.322Z,52.09
2022-08-26T05:18:32.323Z,52.05
2022-08-26T05:20:57.902Z,51.98
2022-08-26T05:23:23.650Z,52.00
2022-08-26T05:25:50.092Z,52.06
2022-08-26T05:28:16.243Z,52.05
2022-08-26T05:30:42.269Z,52.06
2022-08-26T05:33:10.407Z,52.09
2022-08-26T05:35:37.445Z,52.07
2022-08-26T05:38:04.380Z,52.06
2022-08-26T05:40:32.622Z,52.09
2022-08-26T05:42:59.390Z,52.07
2022-08-26T05:45:25.157Z,52.11
2022-08-26T05:47:50.698Z,52.16
2022-08-26T05:50:20.922Z,52.08
2022-08-26T05:52:48.774Z,52.08
2022-08-26T05:55:15.202Z,52.11
2022-08-26T05:57:42.821Z,52.16
2022-08-26T06:00:09.391Z,52.05
2022-08-26T06:02:35.404Z,52.06
2022-08-26T06:05:01.082Z,52.05
2022-08-26T06:07:46.789Z,52.02
2022-08-26T06:10:31.605Z,52.25
2022-08-26T06:12:58.612Z,52.13
2022-08-26T06:15:25.119Z,52.10
2022-08-26T06:17:50.732Z,52.17
2022-08-26T06:20:16.272Z,52.23
2022-08-26T06:23:02.791Z,52.14
2022-08-26T06:25:37.132Z,52.26
2022-08-26T06:28:04.376Z,52.32
2022-08-26T06:30:30.294Z,52.23
2022-08-26T06:32:56.247Z,52.30
2022-08-26T06:35:23.389Z,52.32
2022-08-26T06:37:49.555Z,52.30
2022-08-26T06:40:15.135Z,56.20
2022-08-26T06:42:41.113Z,54.21
2022-08-26T06:45:06.948Z,53.63
2022-08-26T06:47:33.122Z,53.32
2022-08-26T06:49:59.740Z,53.35
2022-08-26T06:52:25.315Z,57.95
2022-08-26T06:54:50.863Z,58.66
2022-08-26T06:57:16.830Z,57.20
2022-08-26T06:59:42.424Z,56.21
2022-08-26T07:02:08.130Z,55.68
2022-08-26T07:04:34.931Z,55.69
2022-08-26T07:07:01.387Z,54.99
2022-08-26T07:09:28.322Z,54.63
2022-08-26T07:11:55.373Z,54.50
2022-08-26T07:14:21.231Z,54.52
2022-08-26T07:16:47.146Z,54.31
2022-08-26T07:19:12.808Z,54.30
2022-08-26T07:21:40.638Z,54.41
2022-08-26T07:24:06.372Z,54.38
2022-08-26T07:26:31.906Z,54.27
2022-08-26T07:28:58.487Z,54.25
2022-08-26T07:31:26.203Z,54.50
2022-08-26T07:33:51.751Z,54.73
2022-08-26T07:36:17.826Z,54.71
2022-08-26T07:38:43.660Z,54.82
2022-08-26T07:41:09.494Z,54.63
2022-08-26T07:43:35.171Z,54.76
2022-08-26T07:46:00.804Z,55.24
2022-08-26T07:48:26.343Z,54.99
2022-08-26T07:50:53.107Z,54.80
2022-08-26T07:53:19.402Z,54.75
2022-08-26T07:55:45.135Z,55.07
2022-08-26T07:58:11.029Z,54.85
2022-08-26T08:00:36.716Z,54.85
2022-08-26T08:03:03.087Z,56.09
2022-08-26T08:05:33.603Z,55.17
2022-08-26T08:08:19.652Z,55.04
2022-08-26T08:10:48.770Z,55.11
2022-08-26T08:13:14.518Z,54.81
2022-08-26T08:15:40.516Z,55.03
2022-08-26T08:18:10.119Z,54.75
2022-08-26T08:20:44.694Z,54.58
2022-08-26T08:23:14.700Z,56.39
2022-08-26T08:25:40.459Z,55.42
2022-08-26T08:28:06.078Z,55.51
2022-08-26T08:30:31.693Z,55.64
2022-08-26T08:33:02.329Z,55.21
2022-08-26T08:35:27.916Z,55.34
2022-08-26T08:37:55.836Z,55.19
2022-08-26T08:40:24.231Z,54.99
2022-08-26T08:45:37.681Z,55.28
2022-08-26T08:48:05.128Z,55.24
2022-08-26T08:50:33.111Z,55.40
2022-08-26T08:53:19.530Z,55.42
2022-08-26T08:55:50.693Z,55.40
2022-08-26T08:58:17.484Z,55.32
2022-08-26T09:00:54.649Z,55.26
2022-08-26T09:03:23.284Z,55.15
2022-08-26T09:05:50.631Z,55.11
2022-08-26T09:08:19.810Z,55.28
2022-08-26T09:10:46.799Z,55.16
2022-08-26T09:13:13.782Z,55.21
2022-08-26T09:15:55.599Z,55.04
2022-08-26T09:18:41.016Z,55.12
2022-08-26T09:21:12.769Z,55.15
2022-08-26T09:23:39.222Z,55.19
2022-08-26T09:26:29.299Z,55.10
2022-08-26T09:28:57.348Z,55.20
2022-08-26T09:31:24.345Z,55.04
2022-08-26T09:34:02.429Z,55.05
2022-08-26T09:36:37.784Z,54.94
2022-08-26T09:39:25.110Z,54.91
2022-08-26T09:42:00.619Z,54.86
2022-08-26T09:44:26.152Z,55.00
2022-08-26T09:46:53.648Z,55.00
2022-08-26T09:49:36.102Z,54.91
2022-08-26T09:54:43.601Z,55.58
2022-08-26T09:57:20.400Z,54.97
2022-08-26T09:59:45.947Z,54.99
2022-08-26T10:02:31.368Z,54.86
2022-08-26T10:04:57.275Z,55.09
2022-08-26T10:07:45.352Z,55.13
2022-08-26T10:10:14.003Z,55.07
2022-08-26T10:12:42.337Z,55.33
2022-08-26T10:15:08.567Z,55.17
2022-08-26T10:17:36.268Z,54.99
2022-08-26T10:22:42.600Z,54.84
2022-08-26T10:25:11.159Z,54.88
2022-08-26T10:27:56.864Z,54.84
2022-08-26T10:30:23.591Z,54.75
2022-08-26T10:32:54.200Z,54.75
2022-08-26T10:35:19.755Z,55.32
2022-08-26T10:37:48.421Z,56.09
2022-08-26T10:40:18.016Z,55.67
2022-08-26T10:42:47.100Z,55.28
2022-08-26T10:45:21.348Z,55.63
2022-08-26T10:47:53.659Z,55.31
2022-08-26T10:50:19.579Z,55.21
2022-08-26T10:52:57.636Z,55.16
2022-08-26T10:55:43.058Z,54.98
2022-08-26T10:58:26.455Z,55.27
2022-08-26T11:01:15.013Z,55.16
2022-08-26T11:03:48.376Z,55.01
2022-08-26T11:06:19.760Z,55.17
2022-08-26T11:08:45.973Z,55.16
2022-08-26T11:11:11.516Z,55.08
2022-08-26T11:13:57.078Z,55.12
2022-08-26T11:16:43.421Z,55.12
2022-08-26T11:19:10.868Z,55.02
2022-08-26T11:21:42.664Z,55.02
2022-08-26T11:24:30.879Z,54.94
2022-08-26T11:26:57.218Z,55.02
2022-08-26T11:29:42.823Z,54.82
2022-08-26T11:32:16.457Z,54.86
2022-08-26T11:34:50.980Z,54.83
2022-08-26T11:37:17.294Z,54.93
2022-08-26T11:39:54.437Z,55.01
2022-08-26T11:42:40.361Z,54.79
2022-08-26T11:45:27.189Z,54.76
2022-08-26T11:47:54.679Z,54.69
2022-08-26T11:50:22.679Z,54.71
2022-08-26T11:52:50.497Z,54.60
2022-08-26T11:55:16.423Z,54.76
2022-08-26T11:57:46.113Z,54.74
2022-08-26T12:00:22.637Z,54.68
2022-08-26T12:02:49.248Z,54.58
2022-08-26T12:05:16.396Z,54.91
2022-08-26T12:07:42.698Z,54.56
2022-08-26T12:10:08.456Z,54.43
2022-08-26T12:12:37.824Z,54.37
2022-08-26T12:15:04.759Z,54.24
2022-08-26T12:17:31.040Z,54.44
2022-08-26T12:19:56.589Z,54.37
2022-08-26T12:22:23.362Z,54.52
2022-08-26T12:24:52.071Z,54.56
2022-08-26T12:27:20.884Z,54.54
2022-08-26T12:30:04.125Z,54.62
2022-08-26T12:32:34.188Z,54.60
2022-08-26T12:35:01.461Z,54.57
2022-08-26T12:37:27.303Z,54.71
2022-08-26T12:39:53.607Z,54.56
2022-08-26T12:44:58.694Z,54.81
2022-08-26T12:47:39.085Z,54.71
2022-08-26T12:50:11.935Z,54.88
2022-08-26T12:52:57.384Z,54.60
2022-08-26T12:55:25.363Z,54.81
2022-08-26T12:58:09.869Z,54.55
2022-08-26T13:00:36.843Z,54.35
2022-08-26T13:03:02.616Z,54.82
2022-08-26T13:05:32.338Z,54.42
2022-08-26T13:08:17.780Z,54.37
2022-08-26T13:10:44.556Z,54.47
2022-08-26T13:13:10.307Z,54.67
2022-08-26T13:15:36.155Z,54.42
2022-08-26T13:18:02.638Z,54.25
2022-08-26T13:20:28.251Z,54.57
2022-08-26T13:22:58.590Z,56.40
2022-08-26T13:25:24.480Z,56.68
2022-08-26T13:27:50.021Z,56.72
2022-08-26T13:30:15.576Z,55.98
2022-08-26T13:32:41.353Z,55.43
2022-08-26T13:35:08.461Z,55.64
2022-08-26T13:37:34.629Z,55.33
2022-08-26T13:40:01.931Z,55.13
2022-08-26T13:42:27.617Z,55.50
2022-08-26T13:44:57.048Z,55.52
2022-08-26T13:47:24.072Z,55.60
2022-08-26T13:49:49.620Z,55.58
2022-08-26T13:52:15.813Z,55.52
2022-08-26T13:54:41.365Z,55.37
2022-08-26T13:57:06.907Z,55.24
2022-08-26T13:59:32.467Z,54.89
2022-08-26T14:01:58.041Z,54.96
2022-08-26T14:04:27.255Z,54.77
2022-08-26T14:06:53.084Z,54.62
2022-08-26T14:09:18.644Z,54.69
2022-08-26T14:11:54.231Z,54.70
2022-08-26T14:14:20.733Z,54.57
2022-08-26T14:16:59.508Z,54.63
2022-08-26T14:19:26.044Z,54.60
2022-08-26T14:21:51.956Z,54.63
2022-08-26T14:24:17.496Z,54.58
2022-08-26T14:26:43.036Z,54.52
2022-08-26T14:29:09.413Z,54.63
2022-08-26T14:31:37.021Z,54.98
2022-08-26T14:34:04.040Z,54.73
2022-08-26T14:36:31.347Z,54.90
2022-08-26T14:39:00.965Z,55.16
2022-08-26T14:41:27.291Z,54.74
2022-08-26T14:43:59.123Z,54.61
2022-08-26T14:46:27.905Z,54.62
2022-08-26T14:48:54.568Z,54.75
2022-08-26T14:51:26.496Z,54.64
2022-08-26T14:54:11.998Z,54.76
2022-08-26T14:56:44.175Z,55.04
2022-08-26T14:59:09.880Z,55.24
2022-08-26T15:01:35.872Z,54.73
2022-08-26T15:04:01.867Z,54.65
2022-08-26T15:06:28.144Z,54.57
2022-08-26T15:08:53.695Z,54.48
2022-08-26T15:11:19.236Z,54.49
2022-08-26T15:13:44.927Z,54.54
2022-08-26T15:16:10.508Z,54.60
2022-08-26T15:18:36.175Z,54.57
2022-08-26T15:21:02.905Z,54.60
2022-08-26T15:23:28.443Z,54.60
2022-08-26T15:25:54.408Z,54.69
2022-08-26T15:28:19.944Z,54.68
2022-08-26T15:30:47.951Z,54.71
2022-08-26T15:33:15.071Z,54.84
2022-08-26T15:35:41.087Z,54.71
2022-08-26T15:38:08.797Z,54.76
2022-08-26T15:40:35.143Z,54.83
2022-08-26T15:43:17.684Z,54.80
2022-08-26T15:45:44.307Z,54.83
2022-08-26T15:48:10.160Z,54.71
2022-08-26T15:50:35.713Z,54.91
2022-08-26T15:53:01.255Z,54.80
2022-08-26T15:55:26.801Z,54.76
2022-08-26T15:57:53.921Z,54.85
2022-08-26T16:00:20.461Z,54.83
2022-08-26T16:02:45.994Z,54.85
2022-08-26T16:05:12.316Z,54.88
2022-08-26T16:07:37.973Z,54.89
2022-08-26T16:10:03.584Z,54.78
2022-08-26T16:12:29.125Z,54.87
2022-08-26T16:14:54.672Z,54.93
2022-08-26T16:17:20.217Z,54.89
2022-08-26T16:19:45.999Z,54.89
2022-08-26T16:22:11.536Z,54.90
2022-08-26T16:24:37.083Z,55.18
2022-08-26T16:27:02.644Z,54.82
2022-08-26T16:29:28.222Z,54.83
2022-08-26T16:31:53.891Z,54.98
2022-08-26T16:34:19.891Z,54.88
2022-08-26T16:36:45.531Z,54.94
2022-08-26T16:39:11.543Z,54.94
2022-08-26T16:41:37.075Z,54.90
2022-08-26T16:44:02.963Z,54.94
2022-08-26T16:46:28.532Z,55.90
2022-08-26T16:48:54.797Z,56.36
2022-08-26T16:51:22.132Z,54.95
2022-08-26T16:53:47.991Z,54.90
2022-08-26T16:56:13.988Z,54.90
2022-08-26T16:58:39.737Z,54.93
2022-08-26T17:01:05.756Z,54.94
2022-08-26T17:03:32.331Z,54.85
2022-08-26T17:05:57.924Z,54.95
2022-08-26T17:08:28.481Z,54.99
2022-08-26T17:10:54.953Z,54.83
2022-08-26T17:13:29.697Z,54.91
2022-08-26T17:16:01.169Z,54.98
2022-08-26T17:18:29.713Z,54.95
2022-08-26T17:20:55.368Z,54.84
2022-08-26T17:23:21.360Z,54.88
2022-08-26T17:25:47.143Z,54.96
2022-08-26T17:28:13.551Z,54.89
2022-08-26T17:30:39.520Z,54.95
2022-08-26T17:33:10.693Z,54.91
2022-08-26T17:35:36.713Z,55.07
2022-08-26T17:38:02.328Z,54.83
2022-08-26T17:40:29.709Z,54.98
2022-08-26T17:42:55.523Z,54.93
2022-08-26T17:45:21.185Z,55.05
2022-08-26T17:47:46.732Z,54.92
2022-08-26T17:50:13.549Z,54.75
2022-08-26T17:52:39.297Z,54.97
2022-08-26T17:55:05.660Z,55.15
2022-08-26T17:57:31.401Z,54.90
2022-08-26T18:00:05.744Z,54.93
2022-08-26T18:05:01.780Z,54.94
2022-08-26T18:07:27.314Z,54.86
2022-08-26T18:09:52.859Z,54.89
2022-08-26T18:12:18.400Z,55.01
2022-08-26T18:14:43.951Z,54.99
2022-08-26T18:17:09.883Z,54.95
2022-08-26T18:19:35.431Z,54.84
2022-08-26T18:22:01.015Z,54.90
2022-08-26T18:24:29.480Z,54.94
2022-08-26T18:26:55.024Z,54.82
2022-08-26T18:29:20.915Z,54.93
2022-08-26T18:31:47.575Z,55.02
2022-08-26T18:34:14.641Z,54.89
2022-08-26T18:36:40.523Z,54.83
2022-08-26T18:39:06.520Z,54.97
2022-08-26T18:41:32.867Z,54.95
2022-08-26T18:43:58.420Z,54.99
2022-08-26T18:46:24.633Z,54.89
2022-08-26T18:48:51.292Z,54.85
2022-08-26T18:51:18.684Z,54.86
2022-08-26T18:53:44.228Z,54.86
2022-08-26T18:56:09.803Z,54.93
2022-08-26T18:58:35.352Z,54.82
2022-08-26T19:01:00.963Z,54.83
2022-08-26T19:03:27.851Z,54.87
2022-08-26T19:05:53.700Z,55.03
2022-08-26T19:08:19.300Z,54.87
2022-08-26T19:10:44.838Z,54.92
2022-08-26T19:13:10.931Z,54.95
2022-08-26T19:15:38.272Z,54.90
2022-08-26T19:18:03.837Z,54.88
2022-08-26T19:20:29.376Z,54.82
2022-08-26T19:22:57.427Z,54.94
2022-08-26T19:25:25.540Z,54.82
2022-08-26T19:27:51.085Z,54.90
2022-08-26T19:30:16.628Z,54.88
2022-08-26T19:32:42.169Z,54.97
2022-08-26T19:35:07.861Z,54.91
2022-08-26T19:37:33.632Z,54.87
2022-08-26T19:39:59.257Z,55.10
2022-08-26T19:42:24.831Z,54.90
2022-08-26T19:45:15.697Z,54.96
2022-08-26T19:47:52.056Z,54.86
2022-08-26T19:50:17.602Z,54.80
2022-08-26T19:52:43.297Z,54.87
2022-08-26T19:55:09.598Z,54.91
2022-08-26T19:57:35.483Z,54.84
2022-08-26T20:00:01.056Z,54.88
2022-08-26T20:02:26.908Z,54.89
2022-08-26T20:04:52.476Z,54.86
2022-08-26T20:07:19.057Z,54.82
2022-08-26T20:09:44.684Z,54.96
2022-08-26T20:12:10.705Z,55.09
2022-08-26T20:14:36.247Z,54.92
2022-08-26T20:17:02.197Z,54.81
2022-08-26T20:19:47.677Z,54.81
2022-08-26T20:22:13.216Z,55.14
2022-08-26T20:24:38.752Z,54.88
2022-08-26T20:27:07.529Z,54.87
2022-08-26T20:29:33.951Z,54.83
2022-08-26T20:31:59.545Z,54.84
2022-08-26T20:34:25.457Z,55.13
2022-08-26T20:36:51.336Z,55.02
2022-08-26T20:39:17.254Z,54.75
2022-08-26T20:41:44.567Z,54.79
2022-08-26T20:44:10.333Z,54.98
2022-08-26T20:46:36.222Z,54.84
2022-08-26T20:49:02.057Z,54.78
2022-08-26T20:51:31.479Z,54.80
2022-08-26T20:53:57.026Z,54.86
2022-08-26T20:56:24.110Z,54.85
2022-08-26T20:58:50.179Z,54.78
2022-08-26T21:01:17.769Z,54.88
2022-08-26T21:03:43.497Z,54.80
2022-08-26T21:06:09.185Z,54.82
2022-08-26T21:08:34.771Z,54.78
2022-08-26T21:11:00.401Z,55.03
2022-08-26T21:13:25.945Z,54.95
2022-08-26T21:15:54.769Z,54.80
2022-08-26T21:18:20.316Z,54.78
2022-08-26T21:20:45.855Z,54.74
2022-08-26T21:23:11.720Z,54.85
2022-08-26T21:25:37.260Z,54.80
2022-08-26T21:28:02.908Z,54.75
2022-08-26T21:30:28.458Z,54.82
2022-08-26T21:32:54.004Z,54.88
2022-08-26T21:35:19.545Z,54.84
2022-08-26T21:37:45.100Z,54.82
2022-08-26T21:40:10.798Z,54.80
2022-08-26T21:42:36.343Z,54.82
2022-08-26T21:45:02.029Z,54.79
2022-08-26T21:47:27.622Z,54.88
2022-08-26T21:49:53.160Z,54.84
2022-08-26T21:52:18.823Z,54.99
2022-08-26T21:54:49.387Z,54.77
2022-08-26T21:57:15.450Z,54.82
2022-08-26T21:59:40.995Z,54.81
2022-08-26T22:02:06.604Z,54.81
2022-08-26T22:04:34.703Z,54.78
2022-08-26T22:07:00.244Z,54.81
2022-08-26T22:09:26.551Z,54.72
2022-08-26T22:11:52.147Z,54.89
2022-08-26T22:14:18.198Z,54.90
2022-08-26T22:16:48.978Z,54.75
2022-08-26T22:19:17.031Z,54.76
2022-08-26T22:21:44.401Z,54.74
2022-08-26T22:24:11.294Z,54.74
2022-08-26T22:26:37.163Z,54.79
2022-08-26T22:29:02.838Z,54.89
2022-08-26T22:31:37.975Z,54.75
2022-08-26T22:34:05.990Z,54.75
2022-08-26T22:36:31.528Z,55.19
2022-08-26T22:38:57.963Z,54.80
2022-08-26T22:41:23.710Z,54.87
2022-08-26T22:43:49.252Z,54.71
2022-08-26T22:46:18.522Z,54.71
2022-08-26T22:48:44.207Z,54.81
2022-08-26T22:51:09.742Z,54.83
2022-08-26T22:53:36.615Z,54.81
2022-08-26T22:56:07.821Z,54.76
2022-08-26T22:58:33.385Z,54.82
2022-08-26T23:00:59.363Z,54.82
2022-08-26T23:03:25.153Z,54.76
2022-08-26T23:05:50.800Z,54.74
2022-08-26T23:08:19.228Z,54.88
2022-08-26T23:10:45.325Z,54.80
2022-08-26T23:13:11.156Z,54.72
2022-08-26T23:15:36.928Z,54.87
2022-08-26T23:18:02.812Z,54.80
2022-08-26T23:20:28.356Z,54.85
2022-08-26T23:22:54.147Z,54.88
2022-08-26T23:25:19.797Z,54.78
2022-08-26T23:27:46.063Z,54.72
2022-08-26T23:30:13.786Z,54.81
2022-08-26T23:32:39.319Z,54.76
2022-08-26T23:35:05.064Z,54.80
2022-08-26T23:37:32.637Z,54.82
2022-08-26T23:39:58.596Z,54.90
2022-08-26T23:42:24.165Z,54.78
2022-08-26T23:44:49.704Z,54.76
2022-08-26T23:47:15.793Z,54.80
2022-08-26T23:49:41.330Z,54.71
2022-08-26T23:52:26.818Z,54.77
2022-08-26T23:54:52.416Z,54.75
2022-08-26T23:57:18.645Z,54.75
2022-08-26T23:59:44.185Z,54.71
